TimeMST,TemperatureF,Dew PointF,Humidity,Sea Level PressureIn,VisibilityMPH,Wind Direction,Wind SpeedMPH,Gust SpeedMPH,PrecipitationIn,Events,Conditions,WindDirDegrees,DateUTC
12:53 AM,39.0,14.0,36,30.11,10.0,WSW,32.2,49.5,N/A,,Clear,240,2013-01-18 07:53:00
1:53 AM,37.9,14.0,38,30.09,10.0,West,31.1,43.7,N/A,,Clear,260,2013-01-18 08:53:00
2:53 AM,41.0,12.0,31,30.10,10.0,WSW,28.8,35.7,N/A,,Clear,240,2013-01-18 09:53:00
3:53 AM,39.0,12.9,34,30.07,10.0,SW,29.9,38.0,N/A,,Clear,230,2013-01-18 10:53:00
4:53 AM,39.0,12.0,33,30.09,10.0,WSW,28.8,38.0,N/A,,Clear,250,2013-01-18 11:53:00
5:53 AM,37.9,10.9,33,30.09,10.0,WSW,29.9,43.7,N/A,,Clear,240,2013-01-18 12:53:00
6:53 AM,39.9,10.0,29,30.10,10.0,WSW,26.5,35.7,N/A,,Clear,240,2013-01-18 13:53:00
7:53 AM,39.0,10.0,30,30.09,10.0,West,26.5,35.7,N/A,,Clear,280,2013-01-18 14:53:00
8:53 AM,39.0,10.0,30,30.07,10.0,SW,33.4,51.8,N/A,,Clear,230,2013-01-18 15:53:00
9:53 AM,42.1,12.9,31,30.06,10.0,WSW,31.1,43.7,N/A,,Clear,240,2013-01-18 16:53:00
10:53 AM,45.0,10.9,25,29.99,10.0,West,34.5,50.6,N/A,,Clear,260,2013-01-18 17:53:00
11:53 AM,44.1,12.0,27,30.00,10.0,SW,44.9,58.7,0.02,,Clear,230,2013-01-18 18:53:00
12:53 PM,46.0,10.9,24,29.99,10.0,SW,40.3,54.1,N/A,,Clear,220,2013-01-18 19:53:00
1:53 PM,45.0,12.0,26,29.97,10.0,SW,39.1,50.6,N/A,,Clear,220,2013-01-18 20:53:00
2:53 PM,46.0,12.0,25,29.98,10.0,SW,41.4,55.2,N/A,,Clear,220,2013-01-18 21:53:00
3:53 PM,46.9,12.9,25,29.99,10.0,SW,27.6,39.1,N/A,,Clear,220,2013-01-18 22:53:00
4:53 PM,46.0,14.0,28,30.00,10.0,SW,25.3,35.7,N/A,,Clear,220,2013-01-18 23:53:00
5:53 PM,45.0,12.9,27,30.02,10.0,SW,25.3,38.0,N/A,,Partly Cloudy,220,2013-01-19 00:53:00
6:53 PM,44.1,12.9,28,30.01,10.0,SSW,33.4,42.6,N/A,,Partly Cloudy,210,2013-01-19 01:53:00
7:53 PM,44.1,12.9,28,30.02,10.0,West,31.1,38.0,N/A,,Overcast,260,2013-01-19 02:53:00
8:53 PM,42.1,12.0,29,30.04,10.0,WSW,26.5,34.5,N/A,,Clear,240,2013-01-19 03:53:00
9:53 PM,44.1,10.9,26,30.06,10.0,WSW,27.6,36.8,N/A,,Clear,250,2013-01-19 04:53:00
10:53 PM,41.0,10.9,29,30.09,10.0,West,23.0,31.1,N/A,,Clear,270,2013-01-19 05:53:00
11:53 PM,42.1,9.0,26,30.10,10.0,WSW,24.2,32.2,N/A,,Clear,240,2013-01-19 06:53:00